Captain Jimmy T Moran — WDE6653 — position and weather

sailwx.info

Track history (hours):
 
Tides and Currents Weather Stations Pressure Air Temp Water Temp Dewpoint Dewpoint Depression Visibility Wind Speed Wind Dir Waves Ship Positions

Captain Jimmy T Moran

Owner: Moran Towing Corp, New Cannan, CT. More information available from US FCC via Universal Licensing System and Coast Guard Vessel Documentation Center.

Last reported at 2015-Apr-23 22:32 UTC. Time now 2015-Apr-25 18:23 UTC.
Position N 29°55' W 090°04'.

Length 26 m; draft 4.9 m.

Type: Tug. MMSI: 367382920.

Date/timePositionNaut miles runAvg speedWind from/ knotsBaromVisibWave heightAir tempDewpointWater temp
2015-Apr-23 22:32N 29°55' W 090°04'0 0.0
2015-Apr-23 21:31N 29°55' W 090°04'0 0.0
2015-Apr-23 20:26N 29°55' W 090°04'0 0.0
2015-Apr-23 19:33N 29°55' W 090°04'0 0.0
2015-Apr-23 18:33N 29°55' W 090°04'0 0.0
2015-Apr-23 17:27N 29°55' W 090°04'0 0.0
2015-Apr-23 16:32N 29°55' W 090°04'2 0.2
2015-Apr-23 07:06N 29°57' W 090°03'5 6.7
2015-Apr-23 06:23N 29°56' W 089°58'7 2.6
2015-Apr-23 03:31N 29°55' W 090°07'0 0.1
2015-Apr-22 23:31N 29°55' W 090°06'1 0.1
2015-Apr-22 18:21N 29°55' W 090°06'0 0.2
2015-Apr-22 17:09N 29°55' W 090°06'3 4.2
2015-Apr-22 16:23N 29°57' W 090°03'1 0.7
2015-Apr-22 14:32N 29°57' W 090°02'5 1.1
2015-Apr-22 10:17N 29°55' W 090°06'1 0.9
2015-Apr-22 09:26N 29°55' W 090°06'0 0.3
2015-Apr-22 08:05N 29°55' W 090°06'0 0.0
2015-Apr-22 01:32N 29°55' W 090°06'0 0.0
2015-Apr-22 00:12N 29°55' W 090°06'0 0.0
2015-Apr-21 23:13N 29°55' W 090°06'0 0.0
2015-Apr-21 22:15N 29°55' W 090°06'0 0.0
2015-Apr-21 21:15N 29°55' W 090°06'0 0.0
2015-Apr-21 20:27N 29°55' W 090°06'0 0.0
2015-Apr-21 19:30N 29°55' W 090°06'1 1.4
2015-Apr-21 18:33N 29°55' W 090°04'0 0.0
2015-Apr-21 17:30N 29°55' W 090°04'0 0.0
2015-Apr-21 16:32N 29°55' W 090°04'0 0.0
2015-Apr-21 15:31N 29°55' W 090°04'0 0.0
2015-Apr-21 14:33N 29°55' W 090°04'0 0.0
2015-Apr-21 13:32N 29°55' W 090°04'0 0.0
2015-Apr-21 12:30N 29°55' W 090°04'0 0.0
2015-Apr-21 11:33N 29°55' W 090°04'0 0.0
2015-Apr-21 10:32N 29°55' W 090°04'0 0.1
2015-Apr-21 09:33N 29°55' W 090°04'0 0.1
2015-Apr-21 08:32N 29°55' W 090°04'0 0.0
2015-Apr-21 07:29N 29°55' W 090°04'0 0.0
2015-Apr-21 06:23N 29°55' W 090°04'0 0.0
2015-Apr-21 05:25N 29°55' W 090°04'1 0.5
2015-Apr-21 02:33N 29°55' W 090°06'0 0.0
2015-Apr-21 01:20N 29°55' W 090°06'3 3.4
2015-Apr-21 00:28N 29°57' W 090°04'6 6.7
2015-Apr-20 23:33N 29°55' W 089°57'5 0.2
2015-Apr-19 19:24N 29°57' W 090°02'5 4.5
2015-Apr-19 18:20N 29°55' W 090°06'0 0.1
2015-Apr-19 10:19N 29°55' W 090°07'3 0.9
2015-Apr-19 07:19N 29°56' W 090°04'2 0.5
2015-Apr-19 02:08N 29°55' W 090°06'0 0.0
2015-Apr-19 01:28N 29°55' W 090°06'0 0.0
2015-Apr-19 00:26N 29°55' W 090°06'0 0.3
2015-Apr-18 23:24N 29°55' W 090°07'1 0.9
2015-Apr-18 22:33N 29°55' W 090°06'0 0.0
2015-Apr-18 21:33N 29°55' W 090°06'0 0.0
2015-Apr-18 20:33N 29°55' W 090°06'2 2.1
2015-Apr-18 19:32N 29°56' W 090°04'0 0.0
2015-Apr-18 18:33N 29°56' W 090°04'2 2.0
2015-Apr-18 17:28N 29°55' W 090°06'1 0.1
2015-Apr-18 11:10N 29°55' W 090°05'1 1.8
2015-Apr-18 10:32N 29°55' W 090°07'1 0.8
2015-Apr-18 09:32N 29°55' W 090°06'1 0.5
2015-Apr-18 07:32N 29°55' W 090°05'8 5.6
2015-Apr-18 06:11N 29°55' W 089°56'7 0.6
2015-Apr-17 18:33N 29°56' W 090°04'4 0.5
2015-Apr-17 11:26N 29°55' W 090°08'2 0.5
2015-Apr-17 08:16N 29°55' W 090°06'1 0.9
2015-Apr-17 07:31N 29°55' W 090°07'1 0.2
2015-Apr-17 03:22N 29°55' W 090°06'0 0.2
2015-Apr-17 01:17N 29°55' W 090°06'1 0.7
2015-Apr-17 00:27N 29°55' W 090°07'1 0.0
2015-Apr-16 11:08N 29°55' W 090°06'2 0.2
2015-Apr-16 00:14N 29°55' W 090°04'1 0.2
2015-Apr-15 20:06N 29°56' W 090°04'1 0.1
2015-Apr-15 00:27N 29°57' W 090°04'1 0.9
2015-Apr-14 23:32N 29°56' W 090°03'2 2.0
2015-Apr-14 22:30N 29°57' W 090°01'0 0.0
2015-Apr-14 21:34N 29°57' W 090°01'5 1.4
2015-Apr-14 18:04N 29°55' W 090°06'0 0.0
2015-Apr-14 06:31N 29°55' W 090°06'0 0.1
2015-Apr-13 23:31N 29°55' W 090°06'  
Track history (hours):
 
Tides and Currents Weather Stations Pressure Air Temp Water Temp Dewpoint Dewpoint Depression Visibility Wind Speed Wind Dir Waves Ship Positions

Captain Jimmy T Moran

Owner: Moran Towing Corp, New Cannan, CT. More information available from US FCC via Universal Licensing System and Coast Guard Vessel Documentation Center.

Last reported at 2015-Apr-23 22:32 UTC. Time now 2015-Apr-25 18:23 UTC.
Position N 29°55' W 090°04'.

Length 26 m; draft 4.9 m.

Type: Tug. MMSI: 367382920.

Date/timePositionNaut miles runAvg speedWind from/ knotsBaromVisibWave heightAir tempDewpointWater temp
2015-Apr-23 22:32N 29°55' W 090°04'0 0.0
2015-Apr-23 21:31N 29°55' W 090°04'0 0.0
2015-Apr-23 20:26N 29°55' W 090°04'0 0.0
2015-Apr-23 19:33N 29°55' W 090°04'0 0.0
2015-Apr-23 18:33N 29°55' W 090°04'0 0.0
2015-Apr-23 17:27N 29°55' W 090°04'0 0.0
2015-Apr-23 16:32N 29°55' W 090°04'2 0.2
2015-Apr-23 07:06N 29°57' W 090°03'5 6.7
2015-Apr-23 06:23N 29°56' W 089°58'7 2.6
2015-Apr-23 03:31N 29°55' W 090°07'0 0.1
2015-Apr-22 23:31N 29°55' W 090°06'1 0.1
2015-Apr-22 18:21N 29°55' W 090°06'0 0.2
2015-Apr-22 17:09N 29°55' W 090°06'3 4.2
2015-Apr-22 16:23N 29°57' W 090°03'1 0.7
2015-Apr-22 14:32N 29°57' W 090°02'5 1.1
2015-Apr-22 10:17N 29°55' W 090°06'1 0.9
2015-Apr-22 09:26N 29°55' W 090°06'0 0.3
2015-Apr-22 08:05N 29°55' W 090°06'0 0.0
2015-Apr-22 01:32N 29°55' W 090°06'0 0.0
2015-Apr-22 00:12N 29°55' W 090°06'0 0.0
2015-Apr-21 23:13N 29°55' W 090°06'0 0.0
2015-Apr-21 22:15N 29°55' W 090°06'0 0.0
2015-Apr-21 21:15N 29°55' W 090°06'0 0.0
2015-Apr-21 20:27N 29°55' W 090°06'0 0.0
2015-Apr-21 19:30N 29°55' W 090°06'1 1.4
2015-Apr-21 18:33N 29°55' W 090°04'0 0.0
2015-Apr-21 17:30N 29°55' W 090°04'0 0.0
2015-Apr-21 16:32N 29°55' W 090°04'0 0.0
2015-Apr-21 15:31N 29°55' W 090°04'0 0.0
2015-Apr-21 14:33N 29°55' W 090°04'0 0.0
2015-Apr-21 13:32N 29°55' W 090°04'0 0.0
2015-Apr-21 12:30N 29°55' W 090°04'0 0.0
2015-Apr-21 11:33N 29°55' W 090°04'0 0.0
2015-Apr-21 10:32N 29°55' W 090°04'0 0.1
2015-Apr-21 09:33N 29°55' W 090°04'0 0.1
2015-Apr-21 08:32N 29°55' W 090°04'0 0.0
2015-Apr-21 07:29N 29°55' W 090°04'0 0.0
2015-Apr-21 06:23N 29°55' W 090°04'0 0.0
2015-Apr-21 05:25N 29°55' W 090°04'1 0.5
2015-Apr-21 02:33N 29°55' W 090°06'0 0.0
2015-Apr-21 01:20N 29°55' W 090°06'3 3.4
2015-Apr-21 00:28N 29°57' W 090°04'6 6.7
2015-Apr-20 23:33N 29°55' W 089°57'5 0.2
2015-Apr-19 19:24N 29°57' W 090°02'5 4.5
2015-Apr-19 18:20N 29°55' W 090°06'0 0.1
2015-Apr-19 10:19N 29°55' W 090°07'3 0.9
2015-Apr-19 07:19N 29°56' W 090°04'2 0.5
2015-Apr-19 02:08N 29°55' W 090°06'0 0.0
2015-Apr-19 01:28N 29°55' W 090°06'0 0.0
2015-Apr-19 00:26N 29°55' W 090°06'0 0.3
2015-Apr-18 23:24N 29°55' W 090°07'1 0.9
2015-Apr-18 22:33N 29°55' W 090°06'0 0.0
2015-Apr-18 21:33N 29°55' W 090°06'0 0.0
2015-Apr-18 20:33N 29°55' W 090°06'2 2.1
2015-Apr-18 19:32N 29°56' W 090°04'0 0.0
2015-Apr-18 18:33N 29°56' W 090°04'2 2.0
2015-Apr-18 17:28N 29°55' W 090°06'1 0.1
2015-Apr-18 11:10N 29°55' W 090°05'1 1.8
2015-Apr-18 10:32N 29°55' W 090°07'1 0.8
2015-Apr-18 09:32N 29°55' W 090°06'1 0.5
2015-Apr-18 07:32N 29°55' W 090°05'8 5.6
2015-Apr-18 06:11N 29°55' W 089°56'7 0.6
2015-Apr-17 18:33N 29°56' W 090°04'4 0.5
2015-Apr-17 11:26N 29°55' W 090°08'2 0.5
2015-Apr-17 08:16N 29°55' W 090°06'1 0.9
2015-Apr-17 07:31N 29°55' W 090°07'1 0.2
2015-Apr-17 03:22N 29°55' W 090°06'0 0.2
2015-Apr-17 01:17N 29°55' W 090°06'1 0.7
2015-Apr-17 00:27N 29°55' W 090°07'1 0.0
2015-Apr-16 11:08N 29°55' W 090°06'2 0.2
2015-Apr-16 00:14N 29°55' W 090°04'1 0.2
2015-Apr-15 20:06N 29°56' W 090°04'1 0.1
2015-Apr-15 00:27N 29°57' W 090°04'1 0.9
2015-Apr-14 23:32N 29°56' W 090°03'2 2.0
2015-Apr-14 22:30N 29°57' W 090°01'0 0.0
2015-Apr-14 21:34N 29°57' W 090°01'5 1.4
2015-Apr-14 18:04N 29°55' W 090°06'0 0.0
2015-Apr-14 06:31N 29°55' W 090°06'0 0.1
2015-Apr-13 23:31N 29°55' W 090°06'  

Dump ship's entire track history